sensor_id;sensor_type;location;lat;lon;timestamp;temperature;humidity
17495;DHT22;8864;51.970;4.614;2023-10-08T00:01:08;22.20;84.40
17495;DHT22;8864;51.970;4.614;2023-10-08T00:03:37;22.20;84.30
17495;DHT22;8864;51.970;4.614;2023-10-08T00:06:06;22.20;85.10
17495;DHT22;8864;51.970;4.614;2023-10-08T00:08:38;22.20;84.30
17495;DHT22;8864;51.970;4.614;2023-10-08T00:11:05;22.20;84.30
17495;DHT22;8864;51.970;4.614;2023-10-08T00:13:34;22.20;84.30
17495;DHT22;8864;51.970;4.614;2023-10-08T00:16:05;22.20;84.30
17495;DHT22;8864;51.970;4.614;2023-10-08T00:18:36;22.30;84.40
17495;DHT22;8864;51.970;4.614;2023-10-08T00:21:04;22.20;84.30
17495;DHT22;8864;51.970;4.614;2023-10-08T00:23:42;22.20;84.30
17495;DHT22;8864;51.970;4.614;2023-10-08T00:26:15;22.20;84.30
17495;DHT22;8864;51.970;4.614;2023-10-08T00:28:54;22.20;84.70
17495;DHT22;8864;51.970;4.614;2023-10-08T00:31:22;22.20;85.20
17495;DHT22;8864;51.970;4.614;2023-10-08T00:33:56;22.20;85.30
17495;DHT22;8864;51.970;4.614;2023-10-08T00:36:23;22.20;85.40
17495;DHT22;8864;51.970;4.614;2023-10-08T00:38:50;22.10;85.40
17495;DHT22;8864;51.970;4.614;2023-10-08T00:41:19;22.10;86.20
17495;DHT22;8864;51.970;4.614;2023-10-08T00:43:48;22.10;85.50
17495;DHT22;8864;51.970;4.614;2023-10-08T00:46:18;22.10;85.30
17495;DHT22;8864;51.970;4.614;2023-10-08T00:48:49;22.10;85.30
17495;DHT22;8864;51.970;4.614;2023-10-08T00:51:19;22.10;85.30
17495;DHT22;8864;51.970;4.614;2023-10-08T00:53:59;22.10;85.30
17495;DHT22;8864;51.970;4.614;2023-10-08T00:56:32;22.10;85.30
17495;DHT22;8864;51.970;4.614;2023-10-08T00:59:15;22.10;85.30
17495;DHT22;8864;51.970;4.614;2023-10-08T01:01:48;22.10;85.30
17495;DHT22;8864;51.970;4.614;2023-10-08T01:04:18;22.10;85.30
17495;DHT22;8864;51.970;4.614;2023-10-08T01:06:50;22.10;85.30
17495;DHT22;8864;51.970;4.614;2023-10-08T01:09:20;22.10;85.30
17495;DHT22;8864;51.970;4.614;2023-10-08T01:12:10;22.10;85.20
17495;DHT22;8864;51.970;4.614;2023-10-08T01:14:41;22.10;85.30
17495;DHT22;8864;51.970;4.614;2023-10-08T01:17:10;22.10;85.20
17495;DHT22;8864;51.970;4.614;2023-10-08T01:19:41;22.10;85.30
17495;DHT22;8864;51.970;4.614;2023-10-08T01:22:12;22.10;85.20
17495;DHT22;8864;51.970;4.614;2023-10-08T01:24:44;22.10;85.20
17495;DHT22;8864;51.970;4.614;2023-10-08T01:27:13;22.10;85.20
17495;DHT22;8864;51.970;4.614;2023-10-08T01:29:46;22.10;85.20
17495;DHT22;8864;51.970;4.614;2023-10-08T01:32:13;22.10;85.20
17495;DHT22;8864;51.970;4.614;2023-10-08T01:34:41;22.10;85.20
17495;DHT22;8864;51.970;4.614;2023-10-08T01:37:14;22.10;85.10
17495;DHT22;8864;51.970;4.614;2023-10-08T01:39:42;22.10;85.20
17495;DHT22;8864;51.970;4.614;2023-10-08T01:42:11;22.10;85.20
17495;DHT22;8864;51.970;4.614;2023-10-08T01:44:43;22.10;85.20
17495;DHT22;8864;51.970;4.614;2023-10-08T01:47:12;22.10;85.10
17495;DHT22;8864;51.970;4.614;2023-10-08T01:49:40;22.10;85.00
17495;DHT22;8864;51.970;4.614;2023-10-08T01:52:09;22.10;85.20
17495;DHT22;8864;51.970;4.614;2023-10-08T01:54:43;22.10;85.10
17495;DHT22;8864;51.970;4.614;2023-10-08T01:57:10;22.10;85.10
17495;DHT22;8864;51.970;4.614;2023-10-08T01:59:38;22.10;85.10
17495;DHT22;8864;51.970;4.614;2023-10-08T02:02:05;22.10;85.10
17495;DHT22;8864;51.970;4.614;2023-10-08T02:04:33;22.10;85.10
17495;DHT22;8864;51.970;4.614;2023-10-08T02:07:01;22.10;85.00
17495;DHT22;8864;51.970;4.614;2023-10-08T02:09:33;22.10;85.00
17495;DHT22;8864;51.970;4.614;2023-10-08T02:12:01;22.10;85.00
17495;DHT22;8864;51.970;4.614;2023-10-08T02:14:29;22.10;85.00
17495;DHT22;8864;51.970;4.614;2023-10-08T02:16:57;22.10;85.00
17495;DHT22;8864;51.970;4.614;2023-10-08T02:19:27;22.10;85.00
17495;DHT22;8864;51.970;4.614;2023-10-08T02:21:54;22.10;85.00
17495;DHT22;8864;51.970;4.614;2023-10-08T02:24:22;22.10;85.00
17495;DHT22;8864;51.970;4.614;2023-10-08T02:26:50;22.10;85.10
17495;DHT22;8864;51.970;4.614;2023-10-08T02:29:20;22.10;85.10
17495;DHT22;8864;51.970;4.614;2023-10-08T02:31:47;22.10;85.10
17495;DHT22;8864;51.970;4.614;2023-10-08T02:34:14;22.10;85.80
17495;DHT22;8864;51.970;4.614;2023-10-08T02:36:41;22.10;85.00
17495;DHT22;8864;51.970;4.614;2023-10-08T02:39:09;22.10;85.80
17495;DHT22;8864;51.970;4.614;2023-10-08T02:41:43;22.10;85.20
17495;DHT22;8864;51.970;4.614;2023-10-08T02:44:11;22.10;85.20
17495;DHT22;8864;51.970;4.614;2023-10-08T02:46:41;22.10;85.10
17495;DHT22;8864;51.970;4.614;2023-10-08T02:49:10;22.10;85.10
17495;DHT22;8864;51.970;4.614;2023-10-08T02:51:38;22.00;85.10
17495;DHT22;8864;51.970;4.614;2023-10-08T02:54:07;22.10;85.20
17495;DHT22;8864;51.970;4.614;2023-10-08T02:56:42;22.10;85.10
17495;DHT22;8864;51.970;4.614;2023-10-08T02:59:11;22.10;85.10
17495;DHT22;8864;51.970;4.614;2023-10-08T03:01:40;22.10;85.60
17495;DHT22;8864;51.970;4.614;2023-10-08T03:04:08;22.10;85.50
17495;DHT22;8864;51.970;4.614;2023-10-08T03:06:43;22.10;85.50
17495;DHT22;8864;51.970;4.614;2023-10-08T03:09:15;22.10;85.50
17495;DHT22;8864;51.970;4.614;2023-10-08T03:11:46;22.10;85.40
17495;DHT22;8864;51.970;4.614;2023-10-08T03:14:14;22.10;85.40
17495;DHT22;8864;51.970;4.614;2023-10-08T03:16:49;22.10;85.40
17495;DHT22;8864;51.970;4.614;2023-10-08T03:19:17;22.10;85.30
17495;DHT22;8864;51.970;4.614;2023-10-08T03:21:46;22.10;85.40
17495;DHT22;8864;51.970;4.614;2023-10-08T03:24:18;22.10;85.40
17495;DHT22;8864;51.970;4.614;2023-10-08T03:26:56;22.10;85.30
17495;DHT22;8864;51.970;4.614;2023-10-08T03:29:32;22.10;85.40
17495;DHT22;8864;51.970;4.614;2023-10-08T03:32:08;22.10;85.40
17495;DHT22;8864;51.970;4.614;2023-10-08T03:34:39;22.10;85.40
17495;DHT22;8864;51.970;4.614;2023-10-08T03:37:09;22.10;85.50
17495;DHT22;8864;51.970;4.614;2023-10-08T03:39:45;22.10;85.50
17495;DHT22;8864;51.970;4.614;2023-10-08T03:42:26;22.10;85.50
17495;DHT22;8864;51.970;4.614;2023-10-08T03:44:59;22.10;85.50
17495;DHT22;8864;51.970;4.614;2023-10-08T03:47:37;22.10;85.50
17495;DHT22;8864;51.970;4.614;2023-10-08T03:50:05;22.10;85.40
17495;DHT22;8864;51.970;4.614;2023-10-08T03:52:34;22.10;85.50
17495;DHT22;8864;51.970;4.614;2023-10-08T03:55:03;22.10;85.40
17495;DHT22;8864;51.970;4.614;2023-10-08T03:57:33;22.10;85.40
17495;DHT22;8864;51.970;4.614;2023-10-08T04:00:10;22.10;85.40
17495;DHT22;8864;51.970;4.614;2023-10-08T04:02:42;22.10;85.40
17495;DHT22;8864;51.970;4.614;2023-10-08T04:05:12;22.10;85.30
17495;DHT22;8864;51.970;4.614;2023-10-08T04:07:45;22.10;85.30
17495;DHT22;8864;51.970;4.614;2023-10-08T04:10:27;22.10;85.40
17495;DHT22;8864;51.970;4.614;2023-10-08T04:13:33;22.10;85.30
17495;DHT22;8864;51.970;4.614;2023-10-08T04:16:01;22.10;85.40
17495;DHT22;8864;51.970;4.614;2023-10-08T04:18:31;22.10;85.50
17495;DHT22;8864;51.970;4.614;2023-10-08T04:21:06;22.10;85.40
17495;DHT22;8864;51.970;4.614;2023-10-08T04:23:39;22.10;85.30
17495;DHT22;8864;51.970;4.614;2023-10-08T04:26:06;22.10;85.40
17495;DHT22;8864;51.970;4.614;2023-10-08T04:28:34;22.10;85.40
17495;DHT22;8864;51.970;4.614;2023-10-08T04:31:03;22.10;85.40
17495;DHT22;8864;51.970;4.614;2023-10-08T04:33:44;22.10;85.40
17495;DHT22;8864;51.970;4.614;2023-10-08T04:36:11;22.10;85.60
17495;DHT22;8864;51.970;4.614;2023-10-08T04:38:43;22.10;86.00
17495;DHT22;8864;51.970;4.614;2023-10-08T04:41:14;22.10;85.80
17495;DHT22;8864;51.970;4.614;2023-10-08T04:43:45;22.10;85.60
17495;DHT22;8864;51.970;4.614;2023-10-08T04:46:15;22.10;85.50
17495;DHT22;8864;51.970;4.614;2023-10-08T04:49:07;22.10;85.50
17495;DHT22;8864;51.970;4.614;2023-10-08T04:51:44;22.10;85.50
17495;DHT22;8864;51.970;4.614;2023-10-08T04:54:14;22.10;85.30
17495;DHT22;8864;51.970;4.614;2023-10-08T04:56:43;22.10;85.30
17495;DHT22;8864;51.970;4.614;2023-10-08T04:59:10;22.10;85.30
17495;DHT22;8864;51.970;4.614;2023-10-08T05:01:38;22.10;85.20
17495;DHT22;8864;51.970;4.614;2023-10-08T05:04:14;22.10;85.20
17495;DHT22;8864;51.970;4.614;2023-10-08T05:06:58;22.10;85.10
17495;DHT22;8864;51.970;4.614;2023-10-08T05:09:44;22.10;85.00
17495;DHT22;8864;51.970;4.614;2023-10-08T05:12:28;22.10;85.00
17495;DHT22;8864;51.970;4.614;2023-10-08T05:15:00;22.10;85.00
17495;DHT22;8864;51.970;4.614;2023-10-08T05:17:46;22.10;84.90
17495;DHT22;8864;51.970;4.614;2023-10-08T05:20:25;22.10;84.90
17495;DHT22;8864;51.970;4.614;2023-10-08T05:23:10;22.10;84.90
17495;DHT22;8864;51.970;4.614;2023-10-08T05:26:07;22.00;84.80
17495;DHT22;8864;51.970;4.614;2023-10-08T05:28:35;22.10;84.90
17495;DHT22;8864;51.970;4.614;2023-10-08T05:31:14;22.10;84.80
17495;DHT22;8864;51.970;4.614;2023-10-08T05:34:02;22.10;84.80
17495;DHT22;8864;51.970;4.614;2023-10-08T05:36:45;22.10;84.90
17495;DHT22;8864;51.970;4.614;2023-10-08T05:39:40;22.10;84.70
17495;DHT22;8864;51.970;4.614;2023-10-08T05:42:12;22.10;84.80
17495;DHT22;8864;51.970;4.614;2023-10-08T05:44:45;22.10;84.90
17495;DHT22;8864;51.970;4.614;2023-10-08T05:47:33;22.10;84.90
17495;DHT22;8864;51.970;4.614;2023-10-08T05:50:07;22.00;84.70
17495;DHT22;8864;51.970;4.614;2023-10-08T05:52:52;22.10;84.90
17495;DHT22;8864;51.970;4.614;2023-10-08T05:55:31;22.10;84.80
17495;DHT22;8864;51.970;4.614;2023-10-08T05:58:04;22.10;84.70
17495;DHT22;8864;51.970;4.614;2023-10-08T06:00:50;22.10;84.60
17495;DHT22;8864;51.970;4.614;2023-10-08T06:03:34;22.10;84.60
17495;DHT22;8864;51.970;4.614;2023-10-08T06:06:25;22.10;84.40
17495;DHT22;8864;51.970;4.614;2023-10-08T06:09:10;22.10;84.30
17495;DHT22;8864;51.970;4.614;2023-10-08T06:12:00;22.10;84.30
17495;DHT22;8864;51.970;4.614;2023-10-08T06:14:36;22.10;84.20
17495;DHT22;8864;51.970;4.614;2023-10-08T06:17:19;22.00;84.10
17495;DHT22;8864;51.970;4.614;2023-10-08T06:20:10;22.00;84.00
17495;DHT22;8864;51.970;4.614;2023-10-08T06:22:42;22.00;84.00
17495;DHT22;8864;51.970;4.614;2023-10-08T06:25:11;22.00;84.00
17495;DHT22;8864;51.970;4.614;2023-10-08T06:27:49;22.00;83.90
17495;DHT22;8864;51.970;4.614;2023-10-08T06:30:19;22.00;83.80
17495;DHT22;8864;51.970;4.614;2023-10-08T06:32:47;22.00;83.80
17495;DHT22;8864;51.970;4.614;2023-10-08T06:35:16;22.10;83.80
17495;DHT22;8864;51.970;4.614;2023-10-08T06:37:44;22.00;83.60
17495;DHT22;8864;51.970;4.614;2023-10-08T06:40:16;22.00;83.50
17495;DHT22;8864;51.970;4.614;2023-10-08T06:42:57;22.00;83.50
17495;DHT22;8864;51.970;4.614;2023-10-08T06:45:30;22.10;83.50
17495;DHT22;8864;51.970;4.614;2023-10-08T06:47:58;22.10;83.40
17495;DHT22;8864;51.970;4.614;2023-10-08T06:50:31;22.10;83.40
17495;DHT22;8864;51.970;4.614;2023-10-08T06:53:03;22.00;83.30
17495;DHT22;8864;51.970;4.614;2023-10-08T06:55:35;22.10;83.20
17495;DHT22;8864;51.970;4.614;2023-10-08T06:58:02;22.10;83.20
17495;DHT22;8864;51.970;4.614;2023-10-08T07:00:33;22.10;83.20
17495;DHT22;8864;51.970;4.614;2023-10-08T07:03:06;22.10;83.00
17495;DHT22;8864;51.970;4.614;2023-10-08T07:05:34;22.10;83.00
17495;DHT22;8864;51.970;4.614;2023-10-08T07:08:07;22.10;83.00
17495;DHT22;8864;51.970;4.614;2023-10-08T07:10:35;22.10;82.90
17495;DHT22;8864;51.970;4.614;2023-10-08T07:13:02;22.10;82.90
17495;DHT22;8864;51.970;4.614;2023-10-08T07:15:30;22.10;82.90
17495;DHT22;8864;51.970;4.614;2023-10-08T07:17:58;22.10;83.00
17495;DHT22;8864;51.970;4.614;2023-10-08T07:20:35;22.10;83.00
17495;DHT22;8864;51.970;4.614;2023-10-08T07:23:05;22.10;83.00
17495;DHT22;8864;51.970;4.614;2023-10-08T07:25:46;22.10;83.20
17495;DHT22;8864;51.970;4.614;2023-10-08T07:28:18;22.10;83.10
17495;DHT22;8864;51.970;4.614;2023-10-08T07:30:46;22.10;83.20
17495;DHT22;8864;51.970;4.614;2023-10-08T07:33:15;22.10;83.20
17495;DHT22;8864;51.970;4.614;2023-10-08T07:35:46;22.10;83.30
17495;DHT22;8864;51.970;4.614;2023-10-08T07:38:20;22.10;83.40
17495;DHT22;8864;51.970;4.614;2023-10-08T07:40:49;22.10;83.80
17495;DHT22;8864;51.970;4.614;2023-10-08T07:43:18;22.10;84.00
17495;DHT22;8864;51.970;4.614;2023-10-08T07:45:46;22.10;83.90
17495;DHT22;8864;51.970;4.614;2023-10-08T07:48:13;22.10;83.80
17495;DHT22;8864;51.970;4.614;2023-10-08T07:50:43;22.10;83.60
17495;DHT22;8864;51.970;4.614;2023-10-08T07:53:12;22.10;83.90
17495;DHT22;8864;51.970;4.614;2023-10-08T07:55:46;22.10;84.00
17495;DHT22;8864;51.970;4.614;2023-10-08T07:58:16;22.10;84.30
17495;DHT22;8864;51.970;4.614;2023-10-08T08:00:44;22.10;84.50
17495;DHT22;8864;51.970;4.614;2023-10-08T08:03:21;22.10;84.60
17495;DHT22;8864;51.970;4.614;2023-10-08T08:05:48;22.10;84.40
17495;DHT22;8864;51.970;4.614;2023-10-08T08:08:19;22.20;84.60
17495;DHT22;8864;51.970;4.614;2023-10-08T08:10:49;22.20;84.60
17495;DHT22;8864;51.970;4.614;2023-10-08T08:13:25;22.20;84.60
17495;DHT22;8864;51.970;4.614;2023-10-08T08:15:55;22.20;84.40
17495;DHT22;8864;51.970;4.614;2023-10-08T08:18:25;22.20;84.10
17495;DHT22;8864;51.970;4.614;2023-10-08T08:20:59;22.20;84.00
17495;DHT22;8864;51.970;4.614;2023-10-08T08:23:28;22.20;83.80
17495;DHT22;8864;51.970;4.614;2023-10-08T08:25:55;22.20;83.50
17495;DHT22;8864;51.970;4.614;2023-10-08T08:28:33;22.20;83.30
17495;DHT22;8864;51.970;4.614;2023-10-08T08:31:04;22.20;83.20
17495;DHT22;8864;51.970;4.614;2023-10-08T08:33:39;22.30;83.20
17495;DHT22;8864;51.970;4.614;2023-10-08T08:36:19;22.30;82.90
17495;DHT22;8864;51.970;4.614;2023-10-08T08:38:48;22.30;82.70
17495;DHT22;8864;51.970;4.614;2023-10-08T08:41:16;22.30;82.50
17495;DHT22;8864;51.970;4.614;2023-10-08T08:43:48;22.30;82.30
17495;DHT22;8864;51.970;4.614;2023-10-08T08:46:15;22.30;82.10
17495;DHT22;8864;51.970;4.614;2023-10-08T08:48:43;22.30;81.80
17495;DHT22;8864;51.970;4.614;2023-10-08T08:51:11;22.30;81.80
17495;DHT22;8864;51.970;4.614;2023-10-08T08:53:39;22.30;81.60
17495;DHT22;8864;51.970;4.614;2023-10-08T08:56:08;22.30;81.60
17495;DHT22;8864;51.970;4.614;2023-10-08T08:58:36;22.30;81.30
17495;DHT22;8864;51.970;4.614;2023-10-08T09:01:06;22.30;81.30
17495;DHT22;8864;51.970;4.614;2023-10-08T09:03:38;22.30;80.80
17495;DHT22;8864;51.970;4.614;2023-10-08T09:06:05;22.40;80.70
17495;DHT22;8864;51.970;4.614;2023-10-08T09:08:36;22.40;80.60
17495;DHT22;8864;51.970;4.614;2023-10-08T09:11:07;22.40;80.30
17495;DHT22;8864;51.970;4.614;2023-10-08T09:13:34;22.30;80.10
17495;DHT22;8864;51.970;4.614;2023-10-08T09:16:08;22.30;80.00
17495;DHT22;8864;51.970;4.614;2023-10-08T09:18:35;22.30;79.80
17495;DHT22;8864;51.970;4.614;2023-10-08T09:21:13;22.30;79.60
17495;DHT22;8864;51.970;4.614;2023-10-08T09:23:41;22.40;79.60
17495;DHT22;8864;51.970;4.614;2023-10-08T09:26:13;22.40;79.60
17495;DHT22;8864;51.970;4.614;2023-10-08T09:28:40;22.40;79.50
17495;DHT22;8864;51.970;4.614;2023-10-08T09:31:14;22.30;79.50
17495;DHT22;8864;51.970;4.614;2023-10-08T09:33:43;22.30;79.30
17495;DHT22;8864;51.970;4.614;2023-10-08T09:36:10;22.40;79.50
17495;DHT22;8864;51.970;4.614;2023-10-08T09:38:45;22.40;79.50
17495;DHT22;8864;51.970;4.614;2023-10-08T09:41:14;22.40;79.60
17495;DHT22;8864;51.970;4.614;2023-10-08T09:43:41;22.40;79.60
17495;DHT22;8864;51.970;4.614;2023-10-08T09:46:15;22.40;79.90
17495;DHT22;8864;51.970;4.614;2023-10-08T09:48:48;22.40;79.80
17495;DHT22;8864;51.970;4.614;2023-10-08T09:51:16;22.40;79.80
17495;DHT22;8864;51.970;4.614;2023-10-08T09:53:52;22.40;80.00
17495;DHT22;8864;51.970;4.614;2023-10-08T09:56:20;22.40;80.10
17495;DHT22;8864;51.970;4.614;2023-10-08T09:58:47;22.40;80.30
17495;DHT22;8864;51.970;4.614;2023-10-08T10:01:18;22.40;80.20
17495;DHT22;8864;51.970;4.614;2023-10-08T10:03:48;22.40;80.10
17495;DHT22;8864;51.970;4.614;2023-10-08T10:06:17;22.40;80.30
17495;DHT22;8864;51.970;4.614;2023-10-08T10:08:45;22.40;80.30
17495;DHT22;8864;51.970;4.614;2023-10-08T10:11:15;22.50;80.40
17495;DHT22;8864;51.970;4.614;2023-10-08T10:13:43;22.40;80.30
17495;DHT22;8864;51.970;4.614;2023-10-08T10:16:16;22.50;80.40
17495;DHT22;8864;51.970;4.614;2023-10-08T10:18:45;22.50;80.40
17495;DHT22;8864;51.970;4.614;2023-10-08T10:21:35;22.50;80.40
17495;DHT22;8864;51.970;4.614;2023-10-08T10:24:03;22.50;80.40
17495;DHT22;8864;51.970;4.614;2023-10-08T10:26:32;22.50;80.60
17495;DHT22;8864;51.970;4.614;2023-10-08T10:29:20;22.50;80.80
17495;DHT22;8864;51.970;4.614;2023-10-08T10:31:48;22.50;81.00
17495;DHT22;8864;51.970;4.614;2023-10-08T10:34:21;22.50;81.00
17495;DHT22;8864;51.970;4.614;2023-10-08T10:36:50;22.50;80.90
17495;DHT22;8864;51.970;4.614;2023-10-08T10:39:22;22.50;80.80
17495;DHT22;8864;51.970;4.614;2023-10-08T10:41:55;22.50;80.70
17495;DHT22;8864;51.970;4.614;2023-10-08T10:44:23;22.50;81.30
17495;DHT22;8864;51.970;4.614;2023-10-08T10:46:50;22.50;80.40
17495;DHT22;8864;51.970;4.614;2023-10-08T10:49:17;22.50;80.20
17495;DHT22;8864;51.970;4.614;2023-10-08T10:51:47;22.50;80.10
17495;DHT22;8864;51.970;4.614;2023-10-08T10:54:16;22.50;79.80
17495;DHT22;8864;51.970;4.614;2023-10-08T10:56:46;22.60;79.70
17495;DHT22;8864;51.970;4.614;2023-10-08T10:59:14;22.60;79.60
17495;DHT22;8864;51.970;4.614;2023-10-08T11:01:46;22.60;79.50
17495;DHT22;8864;51.970;4.614;2023-10-08T11:04:13;22.50;79.30
17495;DHT22;8864;51.970;4.614;2023-10-08T11:06:48;22.60;79.30
17495;DHT22;8864;51.970;4.614;2023-10-08T11:09:20;22.60;79.30
17495;DHT22;8864;51.970;4.614;2023-10-08T11:12:02;22.60;79.20
17495;DHT22;8864;51.970;4.614;2023-10-08T11:14:37;22.60;79.00
17495;DHT22;8864;51.970;4.614;2023-10-08T11:17:10;22.60;78.90
17495;DHT22;8864;51.970;4.614;2023-10-08T11:19:37;22.60;78.90
17495;DHT22;8864;51.970;4.614;2023-10-08T11:22:06;22.60;78.90
17495;DHT22;8864;51.970;4.614;2023-10-08T11:24:33;22.60;78.90
17495;DHT22;8864;51.970;4.614;2023-10-08T11:27:01;22.70;79.00
17495;DHT22;8864;51.970;4.614;2023-10-08T11:29:42;22.70;79.00
17495;DHT22;8864;51.970;4.614;2023-10-08T11:32:10;22.70;79.00
17495;DHT22;8864;51.970;4.614;2023-10-08T11:34:38;22.70;79.00
17495;DHT22;8864;51.970;4.614;2023-10-08T11:37:07;22.70;79.10
17495;DHT22;8864;51.970;4.614;2023-10-08T11:39:46;22.70;79.00
17495;DHT22;8864;51.970;4.614;2023-10-08T11:42:14;22.70;79.00
17495;DHT22;8864;51.970;4.614;2023-10-08T11:45:07;22.70;78.90
17495;DHT22;8864;51.970;4.614;2023-10-08T11:47:44;22.70;78.90
17495;DHT22;8864;51.970;4.614;2023-10-08T11:50:14;22.70;78.90
17495;DHT22;8864;51.970;4.614;2023-10-08T11:52:46;22.70;78.90
17495;DHT22;8864;51.970;4.614;2023-10-08T11:55:15;22.80;78.90
17495;DHT22;8864;51.970;4.614;2023-10-08T11:57:45;22.70;78.90
17495;DHT22;8864;51.970;4.614;2023-10-08T12:00:15;22.80;78.90
17495;DHT22;8864;51.970;4.614;2023-10-08T12:02:46;22.80;78.90
17495;DHT22;8864;51.970;4.614;2023-10-08T12:05:14;22.80;78.90
17495;DHT22;8864;51.970;4.614;2023-10-08T12:07:47;22.80;78.80
17495;DHT22;8864;51.970;4.614;2023-10-08T12:10:16;22.80;78.80
17495;DHT22;8864;51.970;4.614;2023-10-08T12:12:48;22.80;78.80
17495;DHT22;8864;51.970;4.614;2023-10-08T12:15:15;22.80;78.70
17495;DHT22;8864;51.970;4.614;2023-10-08T12:17:46;22.80;78.70
17495;DHT22;8864;51.970;4.614;2023-10-08T12:20:34;22.80;79.50
17495;DHT22;8864;51.970;4.614;2023-10-08T12:23:04;22.80;78.70
17495;DHT22;8864;51.970;4.614;2023-10-08T12:25:31;22.80;78.60
17495;DHT22;8864;51.970;4.614;2023-10-08T12:27:59;22.90;78.70
17495;DHT22;8864;51.970;4.614;2023-10-08T12:30:30;22.90;78.60
17495;DHT22;8864;51.970;4.614;2023-10-08T12:32:58;22.80;78.60
17495;DHT22;8864;51.970;4.614;2023-10-08T12:35:25;22.90;78.60
17495;DHT22;8864;51.970;4.614;2023-10-08T12:37:55;22.90;78.50
17495;DHT22;8864;51.970;4.614;2023-10-08T12:40:24;22.90;78.50
17495;DHT22;8864;51.970;4.614;2023-10-08T12:42:59;22.90;78.40
17495;DHT22;8864;51.970;4.614;2023-10-08T12:45:26;23.00;78.50
17495;DHT22;8864;51.970;4.614;2023-10-08T12:47:53;22.90;78.40
17495;DHT22;8864;51.970;4.614;2023-10-08T12:50:20;22.90;78.40
17495;DHT22;8864;51.970;4.614;2023-10-08T12:52:54;22.90;78.40
17495;DHT22;8864;51.970;4.614;2023-10-08T12:55:23;23.00;78.40
17495;DHT22;8864;51.970;4.614;2023-10-08T12:57:51;22.90;78.30
17495;DHT22;8864;51.970;4.614;2023-10-08T13:00:22;23.00;78.40
17495;DHT22;8864;51.970;4.614;2023-10-08T13:02:50;22.90;78.30
17495;DHT22;8864;51.970;4.614;2023-10-08T13:05:20;22.90;78.30
17495;DHT22;8864;51.970;4.614;2023-10-08T13:07:54;23.00;78.30
17495;DHT22;8864;51.970;4.614;2023-10-08T13:10:23;22.90;78.30
17495;DHT22;8864;51.970;4.614;2023-10-08T13:12:52;22.90;78.30
17495;DHT22;8864;51.970;4.614;2023-10-08T13:15:19;23.00;78.40
17495;DHT22;8864;51.970;4.614;2023-10-08T13:17:50;22.90;78.30
17495;DHT22;8864;51.970;4.614;2023-10-08T13:20:17;22.90;78.30
17495;DHT22;8864;51.970;4.614;2023-10-08T13:22:44;23.00;78.30
17495;DHT22;8864;51.970;4.614;2023-10-08T13:25:12;23.00;78.40
17495;DHT22;8864;51.970;4.614;2023-10-08T13:27:43;23.00;78.30
17495;DHT22;8864;51.970;4.614;2023-10-08T13:30:13;23.00;78.30
17495;DHT22;8864;51.970;4.614;2023-10-08T13:32:40;23.00;78.30
17495;DHT22;8864;51.970;4.614;2023-10-08T13:35:10;23.00;78.20
17495;DHT22;8864;51.970;4.614;2023-10-08T13:37:37;23.00;78.20
17495;DHT22;8864;51.970;4.614;2023-10-08T13:40:06;23.00;78.10
17495;DHT22;8864;51.970;4.614;2023-10-08T13:42:33;22.90;78.10
17495;DHT22;8864;51.970;4.614;2023-10-08T13:45:02;23.00;78.10
17495;DHT22;8864;51.970;4.614;2023-10-08T13:47:33;23.00;78.10
17495;DHT22;8864;51.970;4.614;2023-10-08T13:50:00;23.00;78.10
17495;DHT22;8864;51.970;4.614;2023-10-08T13:52:35;23.00;78.00
17495;DHT22;8864;51.970;4.614;2023-10-08T13:55:06;23.00;78.00
17495;DHT22;8864;51.970;4.614;2023-10-08T13:57:39;23.00;77.90
17495;DHT22;8864;51.970;4.614;2023-10-08T14:00:10;23.00;77.80
17495;DHT22;8864;51.970;4.614;2023-10-08T14:02:41;23.10;77.80
17495;DHT22;8864;51.970;4.614;2023-10-08T14:05:10;23.10;77.80
17495;DHT22;8864;51.970;4.614;2023-10-08T14:07:41;23.00;77.60
17495;DHT22;8864;51.970;4.614;2023-10-08T14:10:10;23.10;77.70
17495;DHT22;8864;51.970;4.614;2023-10-08T14:12:45;23.10;77.70
17495;DHT22;8864;51.970;4.614;2023-10-08T14:15:16;23.00;77.70
17495;DHT22;8864;51.970;4.614;2023-10-08T14:17:44;23.00;77.70
17495;DHT22;8864;51.970;4.614;2023-10-08T14:20:14;23.10;77.80
17495;DHT22;8864;51.970;4.614;2023-10-08T14:22:47;23.10;78.30
17495;DHT22;8864;51.970;4.614;2023-10-08T14:25:18;23.00;78.70
17495;DHT22;8864;51.970;4.614;2023-10-08T14:27:51;23.10;78.90
17495;DHT22;8864;51.970;4.614;2023-10-08T14:30:20;23.10;79.80
17495;DHT22;8864;51.970;4.614;2023-10-08T14:32:49;23.10;79.20
17495;DHT22;8864;51.970;4.614;2023-10-08T14:35:16;23.10;79.00
17495;DHT22;8864;51.970;4.614;2023-10-08T14:38:01;23.10;78.90
17495;DHT22;8864;51.970;4.614;2023-10-08T14:40:57;23.10;78.90
17495;DHT22;8864;51.970;4.614;2023-10-08T14:43:41;23.10;78.80
17495;DHT22;8864;51.970;4.614;2023-10-08T14:46:10;23.10;78.70
17495;DHT22;8864;51.970;4.614;2023-10-08T14:48:37;23.10;78.70
17495;DHT22;8864;51.970;4.614;2023-10-08T14:51:06;23.10;78.60
17495;DHT22;8864;51.970;4.614;2023-10-08T14:53:33;23.00;78.50
17495;DHT22;8864;51.970;4.614;2023-10-08T14:56:04;23.10;78.40
17495;DHT22;8864;51.970;4.614;2023-10-08T14:58:31;23.10;78.40
17495;DHT22;8864;51.970;4.614;2023-10-08T15:00:59;23.10;78.40
17495;DHT22;8864;51.970;4.614;2023-10-08T15:03:28;23.10;78.30
17495;DHT22;8864;51.970;4.614;2023-10-08T15:05:56;23.10;78.20
17495;DHT22;8864;51.970;4.614;2023-10-08T15:08:24;23.10;78.30
17495;DHT22;8864;51.970;4.614;2023-10-08T15:10:52;23.10;78.20
17495;DHT22;8864;51.970;4.614;2023-10-08T15:13:19;23.10;78.20
17495;DHT22;8864;51.970;4.614;2023-10-08T15:15:46;23.10;78.20
17495;DHT22;8864;51.970;4.614;2023-10-08T15:18:14;23.10;78.40
17495;DHT22;8864;51.970;4.614;2023-10-08T15:20:45;23.10;78.40
17495;DHT22;8864;51.970;4.614;2023-10-08T15:23:12;23.10;78.70
17495;DHT22;8864;51.970;4.614;2023-10-08T15:25:39;23.10;78.70
17495;DHT22;8864;51.970;4.614;2023-10-08T15:28:06;23.10;78.80
17495;DHT22;8864;51.970;4.614;2023-10-08T15:30:33;23.10;78.90
17495;DHT22;8864;51.970;4.614;2023-10-08T15:33:00;23.10;79.00
17495;DHT22;8864;51.970;4.614;2023-10-08T15:35:27;23.10;79.00
17495;DHT22;8864;51.970;4.614;2023-10-08T15:37:56;23.10;78.90
17495;DHT22;8864;51.970;4.614;2023-10-08T15:40:22;23.10;78.70
17495;DHT22;8864;51.970;4.614;2023-10-08T15:42:51;23.10;78.60
17495;DHT22;8864;51.970;4.614;2023-10-08T15:45:18;23.10;78.60
17495;DHT22;8864;51.970;4.614;2023-10-08T15:47:45;23.10;78.40
17495;DHT22;8864;51.970;4.614;2023-10-08T15:50:12;23.00;78.30
17495;DHT22;8864;51.970;4.614;2023-10-08T15:52:39;23.00;78.30
17495;DHT22;8864;51.970;4.614;2023-10-08T15:55:08;23.00;78.30
17495;DHT22;8864;51.970;4.614;2023-10-08T15:57:36;23.00;79.00
17495;DHT22;8864;51.970;4.614;2023-10-08T16:00:05;23.00;78.10
17495;DHT22;8864;51.970;4.614;2023-10-08T16:02:33;23.00;78.10
17495;DHT22;8864;51.970;4.614;2023-10-08T16:05:00;23.00;78.10
17495;DHT22;8864;51.970;4.614;2023-10-08T16:07:28;23.00;78.20
17495;DHT22;8864;51.970;4.614;2023-10-08T16:09:55;23.00;78.20
17495;DHT22;8864;51.970;4.614;2023-10-08T16:12:24;23.00;78.10